createdAt,value
2022-09-26T00:01:08.083Z,100750.09
2022-09-26T00:03:35.463Z,100745.28
2022-09-26T00:06:03.480Z,100732.06
2022-09-26T00:08:50.911Z,100719.16
2022-09-26T00:11:20.027Z,100706.78
2022-09-26T00:13:47.295Z,100706.78
2022-09-26T00:16:15.597Z,100696.34
2022-09-26T00:18:42.752Z,100689.91
2022-09-26T00:21:12.086Z,100683.44
2022-09-26T00:23:39.471Z,100674.19
2022-09-26T00:26:07.521Z,100673.34
2022-09-26T00:28:34.570Z,100656.00
2022-09-26T00:31:08.429Z,100661.59
2022-09-26T00:33:35.807Z,100653.50
2022-09-26T00:36:03.153Z,100641.09
2022-09-26T00:38:30.437Z,100641.41
2022-09-26T00:41:01.168Z,100634.47
2022-09-26T00:43:32.670Z,100636.44
2022-09-26T00:46:14.620Z,100627.50
2022-09-26T00:48:42.467Z,100617.91
2022-09-26T00:51:09.978Z,100606.50
2022-09-26T00:53:39.613Z,100596.06
2022-09-26T00:56:10.298Z,100598.38
2022-09-26T00:58:43.339Z,100590.28
2022-09-26T01:01:10.567Z,100584.31
2022-09-26T01:03:40.133Z,100584.97
2022-09-26T01:06:07.052Z,100564.78
2022-09-26T01:08:42.939Z,100565.28
2022-09-26T01:11:14.780Z,100556.03
2022-09-26T01:13:44.343Z,100556.88
2022-09-26T01:16:11.047Z,100551.91
2022-09-26T01:18:38.293Z,100546.78
2022-09-26T01:21:14.292Z,100542.81
2022-09-26T01:23:50.912Z,100537.50
2022-09-26T01:26:29.924Z,100520.63
2022-09-26T01:29:15.577Z,100513.69
2022-09-26T01:32:20.182Z,100510.06
2022-09-26T01:34:51.161Z,100497.16
2022-09-26T01:37:26.339Z,100488.41
2022-09-26T01:39:59.270Z,100480.59
2022-09-26T01:42:31.940Z,100472.19
2022-09-26T01:45:05.191Z,100460.44
2022-09-26T01:47:38.142Z,100457.63
2022-09-26T01:50:20.369Z,100444.25
2022-09-26T01:53:00.166Z,100443.41
2022-09-26T01:55:37.576Z,100434.16
2022-09-26T01:58:14.467Z,100420.44
2022-09-26T02:00:50.633Z,100409.84
2022-09-26T02:03:23.074Z,100406.69
2022-09-26T02:05:49.979Z,100393.00
2022-09-26T02:08:19.612Z,100391.31
2022-09-26T02:11:02.636Z,100391.31
2022-09-26T02:13:32.244Z,100386.03
2022-09-26T02:16:02.532Z,100385.19
2022-09-26T02:18:32.232Z,100375.44
2022-09-26T02:21:02.362Z,100372.66
2022-09-26T02:23:29.116Z,100354.47
2022-09-26T02:25:56.093Z,100354.47
2022-09-26T02:28:23.663Z,100353.97
2022-09-26T02:30:54.030Z,100351.97
2022-09-26T02:33:21.515Z,100352.28
2022-09-26T02:35:57.820Z,100336.56
2022-09-26T02:38:26.683Z,100339.72
2022-09-26T02:41:04.186Z,100320.38
2022-09-26T02:43:31.066Z,100318.72
2022-09-26T02:46:06.000Z,100309.44
2022-09-26T02:48:38.676Z,100300.53
2022-09-26T02:51:10.698Z,100293.56
2022-09-26T02:53:56.577Z,100291.94
2022-09-26T02:56:42.265Z,100277.91
2022-09-26T02:59:22.999Z,100274.59
2022-09-26T03:01:49.872Z,100265.31
2022-09-26T03:04:52.563Z,100258.56
2022-09-26T03:07:29.657Z,100248.47
2022-09-26T03:09:57.803Z,100233.94
2022-09-26T03:12:26.200Z,100223.34
2022-09-26T03:14:58.452Z,100217.41
2022-09-26T03:17:29.330Z,100204.88
2022-09-26T03:20:07.769Z,100209.66
2022-09-26T03:22:34.645Z,100195.94
2022-09-26T03:25:02.352Z,100190.31
2022-09-26T03:27:29.568Z,100191.47
2022-09-26T03:29:56.545Z,100175.78
2022-09-26T03:32:23.524Z,100161.25
2022-09-26T03:34:51.498Z,100166.88
2022-09-26T03:37:18.493Z,100155.97
2022-09-26T03:39:45.506Z,100147.53
2022-09-26T03:42:14.549Z,100157.09
2022-09-26T03:44:44.352Z,100142.59
2022-09-26T03:47:11.340Z,100133.34
2022-09-26T03:49:39.146Z,100136.97
2022-09-26T03:52:07.925Z,100133.66
2022-09-26T03:54:35.108Z,100127.22
2022-09-26T03:57:01.999Z,100134.00
2022-09-26T03:59:28.637Z,100121.59
2022-09-26T04:01:55.825Z,100116.34
2022-09-26T04:04:22.752Z,100103.78
2022-09-26T04:06:51.580Z,100102.16
2022-09-26T04:09:19.229Z,100099.34
2022-09-26T04:11:46.935Z,100092.53
2022-09-26T04:14:13.898Z,100085.31
2022-09-26T04:16:40.939Z,100085.31
2022-09-26T04:19:07.861Z,100081.97
2022-09-26T04:21:42.041Z,100068.28
2022-09-26T04:24:13.945Z,100065.47
2022-09-26T04:26:42.016Z,100056.25
2022-09-26T04:29:09.678Z,100062.66
2022-09-26T04:31:37.238Z,100050.63
2022-09-26T04:34:05.378Z,100041.38
2022-09-26T04:36:32.938Z,100030.47
2022-09-26T04:39:00.884Z,100025.19
2022-09-26T04:41:28.772Z,100022.38
2022-09-26T04:43:56.153Z,100013.13
2022-09-26T04:46:29.635Z,99997.47
2022-09-26T04:48:57.855Z,99990.19
2022-09-26T04:51:25.397Z,99979.78
2022-09-26T04:53:52.541Z,99974.50
2022-09-26T04:56:20.996Z,99971.69
2022-09-26T04:58:48.350Z,99970.03
2022-09-26T05:01:16.569Z,99956.00
2022-09-26T05:03:43.554Z,99953.19
2022-09-26T05:06:11.504Z,99944.31
2022-09-26T05:08:39.632Z,99925.81
2022-09-26T05:11:06.886Z,99897.75
2022-09-26T05:13:34.027Z,99903.34
2022-09-26T05:16:02.095Z,99886.53
2022-09-26T05:18:29.113Z,99888.50
2022-09-26T05:20:56.772Z,99879.59
2022-09-26T05:23:46.166Z,99887.03
2022-09-26T05:26:21.658Z,99888.19
2022-09-26T05:28:50.354Z,99885.19
2022-09-26T05:31:18.226Z,99890.13
2022-09-26T05:33:46.753Z,99890.63
2022-09-26T05:36:13.844Z,99876.72
2022-09-26T05:38:40.860Z,99878.03
2022-09-26T05:41:07.851Z,99876.19
2022-09-26T05:43:35.422Z,99875.19
2022-09-26T05:46:06.791Z,99863.78
2022-09-26T05:48:34.400Z,99873.16
2022-09-26T05:51:09.597Z,99870.16
2022-09-26T05:53:36.257Z,99860.72
2022-09-26T05:56:03.467Z,99849.31
2022-09-26T05:58:34.671Z,99845.50
2022-09-26T06:01:09.138Z,99838.06
2022-09-26T06:03:36.687Z,99836.22
2022-09-26T06:06:04.842Z,99831.53
2022-09-26T06:08:32.192Z,99828.06
2022-09-26T06:11:03.657Z,99821.75
2022-09-26T06:13:31.211Z,99819.09
2022-09-26T06:16:02.166Z,99820.03
2022-09-26T06:18:29.176Z,99813.75
2022-09-26T06:20:56.156Z,99808.59
2022-09-26T06:23:23.086Z,99807.13
2022-09-26T06:25:50.438Z,99806.75
2022-09-26T06:28:18.530Z,99806.91
2022-09-26T06:30:45.645Z,99811.00
2022-09-26T06:33:12.865Z,99796.63
2022-09-26T06:35:39.796Z,99810.81
2022-09-26T06:38:07.024Z,99799.22
2022-09-26T06:40:34.297Z,99813.41
2022-09-26T06:43:01.295Z,99803.81
2022-09-26T06:45:28.650Z,99800.66
2022-09-26T06:47:55.762Z,99810.72
2022-09-26T06:50:23.152Z,99817.19
2022-09-26T06:52:50.089Z,99819.66
2022-09-26T06:55:16.796Z,99821.28
2022-09-26T06:57:44.366Z,99812.03
2022-09-26T07:00:13.173Z,99810.84
2022-09-26T07:02:49.067Z,99822.09
2022-09-26T07:05:16.558Z,99820.94
2022-09-26T07:07:45.927Z,99820.94
2022-09-26T07:10:13.860Z,99807.72
2022-09-26T07:12:45.370Z,99802.09
2022-09-26T07:15:14.446Z,99804.91
2022-09-26T07:17:41.853Z,99805.72
2022-09-26T07:20:10.020Z,99811.81
2022-09-26T07:22:37.190Z,99814.63
2022-09-26T07:25:09.868Z,99814.63
2022-09-26T07:27:36.865Z,99806.69
2022-09-26T07:30:04.921Z,99815.13
2022-09-26T07:32:31.927Z,99809.81
2022-09-26T07:35:08.504Z,99813.13
2022-09-26T07:37:35.411Z,99819.59
2022-09-26T07:40:02.409Z,99822.22
2022-09-26T07:42:29.411Z,99809.38
2022-09-26T07:48:04.532Z,99807.50
2022-09-26T07:50:31.633Z,99808.78
2022-09-26T07:52:58.784Z,99793.31
2022-09-26T07:55:27.207Z,99786.38
2022-09-26T07:57:53.867Z,99805.72
2022-09-26T08:00:21.639Z,99820.13
2022-09-26T08:02:48.914Z,99822.47
2022-09-26T08:05:22.255Z,99814.38
2022-09-26T08:07:49.497Z,99808.75
2022-09-26T08:10:21.386Z,99816.34
2022-09-26T08:12:48.796Z,99809.56
2022-09-26T08:15:15.821Z,99810.03
2022-09-26T08:17:43.559Z,99812.16
2022-09-26T08:20:11.121Z,99815.13
2022-09-26T08:22:37.773Z,99818.00
2022-09-26T08:25:06.703Z,99824.00
2022-09-26T08:27:34.071Z,99830.94
2022-09-26T08:30:01.252Z,99821.72
2022-09-26T08:32:27.924Z,99827.84
2022-09-26T08:35:05.729Z,99816.19
2022-09-26T08:37:32.446Z,99827.97
2022-09-26T08:40:01.085Z,99830.63
2022-09-26T08:42:28.900Z,99821.41
2022-09-26T08:45:33.219Z,99827.69
2022-09-26T08:48:07.057Z,99819.50
2022-09-26T08:50:52.591Z,99812.91
2022-09-26T08:53:22.970Z,99819.19
2022-09-26T08:55:50.379Z,99819.25
2022-09-26T08:58:26.581Z,99816.75
2022-09-26T09:01:11.448Z,99834.91
2022-09-26T09:03:40.994Z,99825.72
2022-09-26T09:06:13.822Z,99825.88
2022-09-26T09:08:44.868Z,99828.66
2022-09-26T09:11:40.384Z,99846.94
2022-09-26T09:14:31.780Z,99850.25
2022-09-26T09:17:12.911Z,99845.13
2022-09-26T09:20:12.464Z,99829.28
2022-09-26T09:22:57.274Z,99839.00
2022-09-26T09:25:51.516Z,99847.22
2022-09-26T09:28:41.040Z,99837.47
2022-09-26T09:31:16.226Z,99841.56
2022-09-26T09:33:49.216Z,99846.50
2022-09-26T09:36:22.305Z,99840.25
2022-09-26T09:38:51.110Z,99835.47
2022-09-26T09:41:23.786Z,99852.44
2022-09-26T09:44:01.186Z,99859.34
2022-09-26T09:46:29.529Z,99835.41
2022-09-26T09:49:03.369Z,99829.13
2022-09-26T09:51:38.358Z,99838.38
2022-09-26T09:54:15.901Z,99842.13
2022-09-26T09:56:42.936Z,99849.03
2022-09-26T09:59:10.167Z,99838.31
2022-09-26T10:01:41.709Z,99836.81
2022-09-26T10:04:09.076Z,99824.91
2022-09-26T10:06:46.580Z,99829.84
2022-09-26T10:09:39.079Z,99826.34
2022-09-26T10:12:10.978Z,99817.91
2022-09-26T10:14:43.013Z,99827.34
2022-09-26T10:17:11.218Z,99828.13
2022-09-26T10:19:39.854Z,99826.19
2022-09-26T10:22:11.700Z,99822.72
2022-09-26T10:24:41.435Z,99818.72
2022-09-26T10:27:19.352Z,99815.25
2022-09-26T10:29:47.608Z,99818.88
2022-09-26T10:32:18.190Z,99815.06
2022-09-26T10:37:37.282Z,99811.75
2022-09-26T10:40:37.988Z,99813.72
2022-09-26T10:43:14.756Z,99824.13
2022-09-26T10:45:41.606Z,99817.69
2022-09-26T10:48:08.648Z,99827.78
2022-09-26T10:50:35.609Z,99826.13
2022-09-26T10:53:08.734Z,99819.34
2022-09-26T10:55:41.074Z,99823.94
2022-09-26T10:58:13.686Z,99820.81
2022-09-26T11:00:43.010Z,99816.66
2022-09-26T11:03:11.809Z,99812.72
2022-09-26T11:05:49.736Z,99803.81
2022-09-26T11:08:16.911Z,99815.06
2022-09-26T11:10:46.132Z,99819.84
2022-09-26T11:13:18.108Z,99821.00
2022-09-26T11:15:54.918Z,99824.63
2022-09-26T11:18:27.727Z,99826.63
2022-09-26T11:20:57.719Z,99830.59
2022-09-26T11:23:35.468Z,99828.94
2022-09-26T11:26:12.860Z,99831.28
2022-09-26T11:28:44.216Z,99836.41
2022-09-26T11:31:19.251Z,99834.41
2022-09-26T11:33:46.459Z,99838.06
2022-09-26T11:36:22.911Z,99836.56
2022-09-26T11:38:55.856Z,99836.69
2022-09-26T11:41:42.486Z,99839.00
2022-09-26T11:44:22.248Z,99841.00
2022-09-26T11:46:58.589Z,99848.97
2022-09-26T11:49:34.778Z,99838.06
2022-09-26T11:52:02.397Z,99837.59
2022-09-26T11:54:33.739Z,99841.56
2022-09-26T11:57:03.954Z,99842.69
2022-09-26T11:59:40.960Z,99855.91
2022-09-26T12:02:16.033Z,99851.78
2022-09-26T12:04:56.292Z,99861.38
2022-09-26T12:07:35.414Z,99869.78
2022-09-26T12:10:11.976Z,99877.41
2022-09-26T12:12:48.750Z,99884.53
2022-09-26T12:15:23.927Z,99888.50
2022-09-26T12:17:51.059Z,99895.25
2022-09-26T12:20:20.584Z,99896.41
2022-09-26T12:22:51.170Z,99889.66
2022-09-26T12:25:26.736Z,99897.25
2022-09-26T12:27:53.826Z,99893.59
2022-09-26T12:30:24.739Z,99900.06
2022-09-26T12:35:29.457Z,99886.00
2022-09-26T12:38:07.460Z,99883.19
2022-09-26T12:40:40.320Z,99882.19
2022-09-26T12:43:16.716Z,99877.06
2022-09-26T12:45:57.658Z,99884.16
2022-09-26T12:48:34.649Z,99876.09
2022-09-26T12:51:10.768Z,99889.31
2022-09-26T12:53:44.940Z,99892.44
2022-09-26T12:56:13.220Z,99879.56
2022-09-26T12:58:40.389Z,99891.16
2022-09-26T13:01:16.877Z,99890.66
2022-09-26T13:03:47.268Z,99893.78
2022-09-26T13:06:17.737Z,99887.34
2022-09-26T13:08:46.064Z,99875.31
2022-09-26T13:11:23.571Z,99884.91
2022-09-26T13:14:06.556Z,99881.25
2022-09-26T13:16:42.612Z,99891.34
2022-09-26T13:19:16.357Z,99888.53
2022-09-26T13:21:48.567Z,99898.94
2022-09-26T13:24:21.622Z,99890.97
2022-09-26T13:26:54.467Z,99893.31
2022-09-26T13:29:26.933Z,99884.06
2022-09-26T13:32:04.293Z,99892.50
2022-09-26T13:34:36.109Z,99925.38
2022-09-26T13:37:04.760Z,99936.59
2022-09-26T13:39:32.751Z,99936.91
2022-09-26T13:42:01.748Z,99940.09
2022-09-26T13:44:28.931Z,99935.63
2022-09-26T13:47:08.643Z,99936.78
2022-09-26T13:49:44.809Z,99934.28
2022-09-26T13:52:20.817Z,99934.28
2022-09-26T13:54:59.310Z,99937.47
2022-09-26T13:57:32.149Z,99945.06
2022-09-26T13:59:59.096Z,99951.00
2022-09-26T14:02:29.601Z,99954.94
2022-09-26T14:05:02.986Z,99955.31
2022-09-26T14:08:11.352Z,99962.91
2022-09-26T14:10:42.135Z,99959.59
2022-09-26T14:13:33.600Z,99957.13
2022-09-26T14:16:02.038Z,99966.72
2022-09-26T14:18:44.389Z,99959.44
2022-09-26T14:21:12.965Z,99959.78
2022-09-26T14:23:46.939Z,99963.41
2022-09-26T14:26:14.515Z,99960.94
2022-09-26T14:28:48.103Z,99953.69
2022-09-26T14:31:34.055Z,99959.28
2022-09-26T14:34:18.536Z,99955.66
2022-09-26T14:36:46.871Z,99963.25
2022-09-26T14:39:42.945Z,99959.63
2022-09-26T14:42:23.087Z,99958.00
2022-09-26T14:45:08.244Z,99964.75
2022-09-26T14:47:40.529Z,99954.69
2022-09-26T14:50:14.380Z,99955.00
2022-09-26T14:52:52.952Z,99962.28
2022-09-26T14:55:20.306Z,99966.59
2022-09-26T14:57:48.625Z,99961.44
2022-09-26T15:00:54.083Z,99965.41
2022-09-26T15:03:21.742Z,99968.56
2022-09-26T15:05:49.515Z,99957.34
2022-09-26T15:08:22.621Z,99950.91
2022-09-26T15:10:49.739Z,99956.84
2022-09-26T15:13:34.639Z,99961.63
2022-09-26T15:16:10.106Z,99959.31
2022-09-26T15:18:41.779Z,99958.00
2022-09-26T15:21:20.499Z,99962.81
2022-09-26T15:23:49.630Z,99955.53
2022-09-26T15:26:18.457Z,99958.34
2022-09-26T15:28:47.386Z,99961.16
2022-09-26T15:31:23.194Z,99962.28
2022-09-26T15:33:51.194Z,99953.03
2022-09-26T15:36:18.134Z,99955.53
2022-09-26T15:38:47.406Z,99960.78
2022-09-26T15:41:37.839Z,99951.56
2022-09-26T15:44:07.761Z,99950.25
2022-09-26T15:46:34.479Z,99955.53
2022-09-26T15:49:01.311Z,99943.81
2022-09-26T15:51:36.251Z,99952.22
2022-09-26T15:54:05.745Z,99957.84
2022-09-26T15:56:36.150Z,99951.38
2022-09-26T15:59:02.843Z,99950.56
2022-09-26T16:01:31.168Z,99948.94
2022-09-26T16:04:03.047Z,99955.38
2022-09-26T16:06:41.966Z,99958.50
2022-09-26T16:09:11.711Z,99954.88
2022-09-26T16:11:58.393Z,99954.88
2022-09-26T16:14:26.982Z,99958.84
2022-09-26T16:17:13.718Z,99953.56
2022-09-26T16:19:45.016Z,99956.69
2022-09-26T16:22:41.065Z,99960.34
2022-09-26T16:25:19.375Z,99967.94
2022-09-26T16:27:59.745Z,99969.91
2022-09-26T16:30:30.153Z,99966.59
2022-09-26T16:33:14.067Z,99977.03
2022-09-26T16:35:45.552Z,99969.75
2022-09-26T16:38:14.942Z,99979.31
2022-09-26T16:40:49.345Z,99977.66
2022-09-26T16:43:19.291Z,99983.28
2022-09-26T16:45:48.716Z,99983.28
2022-09-26T16:48:33.803Z,99982.78
2022-09-26T16:51:17.339Z,99984.78
2022-09-26T16:53:45.915Z,99985.59
2022-09-26T16:56:29.603Z,99978.66
2022-09-26T16:59:01.274Z,99973.03
2022-09-26T17:01:46.893Z,99981.81
2022-09-26T17:04:22.494Z,99986.59
2022-09-26T17:06:49.110Z,99985.78
2022-09-26T17:09:15.735Z,99987.75
2022-09-26T17:11:42.760Z,99994.50
2022-09-26T17:14:16.530Z,99991.69
2022-09-26T17:16:48.674Z,99988.41
2022-09-26T17:19:16.864Z,99989.56
2022-09-26T17:21:44.540Z,99995.19
2022-09-26T17:24:15.135Z,99996.00
2022-09-26T17:26:46.060Z,99991.84
2022-09-26T17:29:17.559Z,99997.47
2022-09-26T17:31:45.037Z,99995.00
2022-09-26T17:34:26.545Z,99989.69
2022-09-26T17:36:58.635Z,99991.66
2022-09-26T17:39:29.735Z,99992.50
2022-09-26T17:42:01.877Z,100002.38
2022-09-26T17:44:28.493Z,100006.00
2022-09-26T17:46:56.369Z,100001.59
2022-09-26T17:49:23.053Z,100008.50
2022-09-26T17:51:49.785Z,100014.94
2022-09-26T17:54:17.742Z,100011.50
2022-09-26T17:56:44.622Z,100017.25
2022-09-26T17:59:23.265Z,100010.66
2022-09-26T18:01:55.210Z,100014.13
2022-09-26T18:04:27.470Z,100018.75
2022-09-26T18:06:55.168Z,100022.06
2022-09-26T18:09:21.988Z,100020.56
2022-09-26T18:12:01.019Z,100017.91
2022-09-26T18:14:29.703Z,100029.34
2022-09-26T18:16:56.378Z,100028.66
2022-09-26T18:19:23.017Z,100028.34
2022-09-26T18:21:55.572Z,100044.19
2022-09-26T18:24:26.779Z,100029.47
2022-09-26T18:26:57.189Z,100036.38
2022-09-26T18:29:44.023Z,100038.56
2022-09-26T18:32:23.486Z,100035.91
2022-09-26T18:35:05.221Z,100037.22
2022-09-26T18:37:31.849Z,100043.31
2022-09-26T18:40:03.636Z,100041.81
2022-09-26T18:42:31.947Z,100041.50
2022-09-26T18:45:08.792Z,100048.09
2022-09-26T18:47:42.021Z,100047.78
2022-09-26T18:50:30.037Z,100051.41
2022-09-26T18:52:56.610Z,100053.03
2022-09-26T18:55:43.315Z,100051.88
2022-09-26T18:58:24.757Z,100052.72
2022-09-26T19:00:55.417Z,100058.84
2022-09-26T19:03:27.166Z,100065.28
2022-09-26T19:05:59.433Z,100071.69
2022-09-26T19:08:35.360Z,100064.94
2022-09-26T19:11:04.231Z,100081.94
2022-09-26T19:13:31.624Z,100073.03
2022-09-26T19:15:58.707Z,100070.69
2022-09-26T19:18:25.615Z,100075.53
2022-09-26T19:20:52.925Z,100078.31
2022-09-26T19:23:19.708Z,100077.97
2022-09-26T19:25:46.337Z,100077.66
2022-09-26T19:28:17.033Z,100084.59
2022-09-26T19:30:44.099Z,100082.44
2022-09-26T19:33:12.237Z,100081.13
2022-09-26T19:35:40.090Z,100084.25
2022-09-26T19:38:16.326Z,100093.84
2022-09-26T19:40:48.430Z,100076.31
2022-09-26T19:43:16.514Z,100081.47
2022-09-26T19:45:43.605Z,100081.13
2022-09-26T19:48:12.808Z,100087.41
2022-09-26T19:50:40.006Z,100089.06
2022-09-26T19:53:12.721Z,100091.03
2022-09-26T19:55:39.876Z,100093.84
2022-09-26T19:58:14.528Z,100093.53
2022-09-26T20:00:44.928Z,100092.19
2022-09-26T20:03:16.066Z,100095.00
2022-09-26T20:05:42.631Z,100094.16
2022-09-26T20:08:14.533Z,100095.66
2022-09-26T20:10:41.190Z,100084.44
2022-09-26T20:13:07.752Z,100080.47
2022-09-26T20:15:34.444Z,100079.97
2022-09-26T20:18:01.114Z,100072.22
2022-09-26T20:20:27.914Z,100084.59
2022-09-26T20:22:55.432Z,100081.63
2022-09-26T20:25:26.811Z,100084.78
2022-09-26T20:27:54.268Z,100086.75
2022-09-26T20:30:56.568Z,100088.25
2022-09-26T20:33:24.134Z,100092.22
2022-09-26T20:36:01.687Z,100089.72
2022-09-26T20:38:30.748Z,100090.91
2022-09-26T20:41:12.714Z,100091.22
2022-09-26T20:43:40.263Z,100095.19
2022-09-26T20:46:08.941Z,100096.34
2022-09-26T20:48:36.594Z,100090.25
2022-09-26T20:51:04.674Z,100091.06
2022-09-26T20:53:33.372Z,100082.97
2022-09-26T20:56:04.064Z,100088.59
2022-09-26T20:58:30.737Z,100089.72
2022-09-26T21:00:59.561Z,100088.09
2022-09-26T21:03:28.272Z,100086.44
2022-09-26T21:05:54.920Z,100091.22
2022-09-26T21:08:26.546Z,100082.31
2022-09-26T21:10:53.268Z,100087.91
2022-09-26T21:13:19.899Z,100077.03
2022-09-26T21:15:46.509Z,100087.44
2022-09-26T21:18:27.247Z,100083.28
2022-09-26T21:20:54.269Z,100091.25
2022-09-26T21:23:21.043Z,100096.03
2022-09-26T21:25:47.773Z,100098.00
2022-09-26T21:28:26.502Z,100092.38
2022-09-26T21:30:54.988Z,100095.50
2022-09-26T21:33:26.708Z,100094.88
2022-09-26T21:35:53.733Z,100087.28
2022-09-26T21:38:20.699Z,100097.53
2022-09-26T21:40:48.984Z,100084.97
2022-09-26T21:43:17.587Z,100084.47
2022-09-26T21:45:45.371Z,100087.59
2022-09-26T21:48:13.063Z,100091.56
2022-09-26T21:50:42.104Z,100088.28
2022-09-26T21:53:14.518Z,100076.53
2022-09-26T21:55:43.371Z,100082.97
2022-09-26T21:58:13.291Z,100082.81
2022-09-26T22:00:40.417Z,100091.25
2022-09-26T22:03:08.345Z,100089.59
2022-09-26T22:05:36.109Z,100091.72
2022-09-26T22:08:02.786Z,100091.72
2022-09-26T22:10:29.588Z,100088.91
2022-09-26T22:12:56.541Z,100097.00
2022-09-26T22:15:23.277Z,100100.28
2022-09-26T22:17:49.978Z,100094.88
2022-09-26T22:20:16.727Z,100099.81
2022-09-26T22:22:44.498Z,100096.84
2022-09-26T22:25:12.736Z,100102.63
2022-09-26T22:27:40.779Z,100106.41
2022-09-26T22:30:08.285Z,100108.56
2022-09-26T22:32:35.043Z,100105.59
2022-09-26T22:35:02.304Z,100104.13
2022-09-26T22:37:28.922Z,100098.66
2022-09-26T22:39:55.583Z,100102.78
2022-09-26T22:42:22.278Z,100107.38
2022-09-26T22:44:58.621Z,100107.06
2022-09-26T22:47:25.231Z,100100.47
2022-09-26T22:49:52.204Z,100101.44
2022-09-26T22:52:18.778Z,100096.31
2022-09-26T22:54:45.559Z,100098.47
2022-09-26T22:57:12.154Z,100095.31
2022-09-26T22:59:40.192Z,100097.50
2022-09-26T23:02:07.132Z,100091.56
2022-09-26T23:04:58.102Z,100090.03
2022-09-26T23:07:25.066Z,100087.75
2022-09-26T23:09:51.913Z,100097.00
2022-09-26T23:12:19.426Z,100088.22
2022-09-26T23:14:46.028Z,100090.69
2022-09-26T23:17:13.241Z,100083.09
2022-09-26T23:19:40.604Z,100083.56
2022-09-26T23:22:07.635Z,100080.44
2022-09-26T23:24:34.609Z,100082.94
2022-09-26T23:27:01.782Z,100088.53
2022-09-26T23:29:28.333Z,100091.00
2022-09-26T23:31:55.270Z,100088.53
2022-09-26T23:34:22.389Z,100079.75
2022-09-26T23:36:49.293Z,100082.25
2022-09-26T23:39:16.230Z,100083.06
2022-09-26T23:41:43.207Z,100083.06
2022-09-26T23:44:10.830Z,100095.16
2022-09-26T23:46:37.847Z,100086.72
2022-09-26T23:49:04.874Z,100087.19
2022-09-26T23:51:31.908Z,100090.00
2022-09-26T23:53:58.868Z,100089.66
2022-09-26T23:56:25.821Z,100095.78
2022-09-26T23:58:55.911Z,100087.38
